sensor_id;sensor_type;location;lat;lon;timestamp;P1;P2;P0
76101;PMS7003;64830;46.910;6.354;2022-12-07T00:01:04;20.25;17.25;10.25
76101;PMS7003;64830;46.910;6.354;2022-12-07T00:03:31;16.25;14.00;11.00
76101;PMS7003;64830;46.910;6.354;2022-12-07T00:05:59;18.25;15.75;9.25
76101;PMS7003;64830;46.910;6.354;2022-12-07T00:08:26;14.00;13.50;6.50
76101;PMS7003;64830;46.910;6.354;2022-12-07T00:10:52;15.25;15.25;9.75
76101;PMS7003;64830;46.910;6.354;2022-12-07T00:13:17;15.50;14.25;10.00
76101;PMS7003;64830;46.910;6.354;2022-12-07T00:15:43;17.50;17.25;10.00
76101;PMS7003;64830;46.910;6.354;2022-12-07T00:18:09;12.00;12.00;10.00
76101;PMS7003;64830;46.910;6.354;2022-12-07T00:20:34;15.25;9.50;5.00
76101;PMS7003;64830;46.910;6.354;2022-12-07T00:23:00;17.50;16.75;11.00
76101;PMS7003;64830;46.910;6.354;2022-12-07T00:25:25;1.00;0.00;0.00
76101;PMS7003;64830;46.910;6.354;2022-12-07T00:27:54;15.25;13.25;10.25
76101;PMS7003;64830;46.910;6.354;2022-12-07T00:30:21;13.25;11.00;7.50
76101;PMS7003;64830;46.910;6.354;2022-12-07T00:32:47;16.00;14.50;12.00
76101;PMS7003;64830;46.910;6.354;2022-12-07T00:35:13;10.25;10.25;7.75
76101;PMS7003;64830;46.910;6.354;2022-12-07T00:37:38;17.75;16.00;11.50
76101;PMS7003;64830;46.910;6.354;2022-12-07T00:40:04;10.50;9.00;4.00
76101;PMS7003;64830;46.910;6.354;2022-12-07T00:42:30;19.00;15.50;9.50
76101;PMS7003;64830;46.910;6.354;2022-12-07T00:44:55;14.25;13.50;10.25
76101;PMS7003;64830;46.910;6.354;2022-12-07T00:47:21;17.25;11.50;7.25
76101;PMS7003;64830;46.910;6.354;2022-12-07T00:49:46;16.50;15.25;10.00
76101;PMS7003;64830;46.910;6.354;2022-12-07T00:52:12;15.00;14.75;12.25
76101;PMS7003;64830;46.910;6.354;2022-12-07T00:54:37;17.00;14.00;12.75
76101;PMS7003;64830;46.910;6.354;2022-12-07T00:57:02;17.00;14.25;9.50
76101;PMS7003;64830;46.910;6.354;2022-12-07T00:59:28;13.00;11.00;10.00
76101;PMS7003;64830;46.910;6.354;2022-12-07T01:01:53;14.75;12.50;8.25
76101;PMS7003;64830;46.910;6.354;2022-12-07T01:04:18;15.00;13.75;10.00
76101;PMS7003;64830;46.910;6.354;2022-12-07T01:06:44;15.00;14.25;12.50
76101;PMS7003;64830;46.910;6.354;2022-12-07T01:09:09;17.50;14.50;11.00
76101;PMS7003;64830;46.910;6.354;2022-12-07T01:11:35;13.25;10.50;6.00
76101;PMS7003;64830;46.910;6.354;2022-12-07T01:14:00;12.75;10.50;9.50
76101;PMS7003;64830;46.910;6.354;2022-12-07T01:16:27;15.50;11.00;7.50
76101;PMS7003;64830;46.910;6.354;2022-12-07T01:18:54;24.00;16.50;10.00
76101;PMS7003;64830;46.910;6.354;2022-12-07T01:21:24;15.00;13.75;10.25
76101;PMS7003;64830;46.910;6.354;2022-12-07T01:23:56;19.50;15.25;11.25
76101;PMS7003;64830;46.910;6.354;2022-12-07T01:26:23;18.00;12.75;9.00
76101;PMS7003;64830;46.910;6.354;2022-12-07T01:28:49;15.75;15.75;10.50
76101;PMS7003;64830;46.910;6.354;2022-12-07T01:31:16;14.50;12.50;8.00
76101;PMS7003;64830;46.910;6.354;2022-12-07T01:33:47;21.00;15.00;10.75
76101;PMS7003;64830;46.910;6.354;2022-12-07T01:36:15;15.75;13.00;10.00
76101;PMS7003;64830;46.910;6.354;2022-12-07T01:38:43;13.50;12.00;10.00
76101;PMS7003;64830;46.910;6.354;2022-12-07T01:41:09;14.75;13.75;10.75
76101;PMS7003;64830;46.910;6.354;2022-12-07T01:43:35;14.25;12.75;8.00
76101;PMS7003;64830;46.910;6.354;2022-12-07T01:46:01;17.25;11.25;8.25
76101;PMS7003;64830;46.910;6.354;2022-12-07T01:48:30;20.50;14.00;8.00
76101;PMS7003;64830;46.910;6.354;2022-12-07T01:51:00;15.50;13.75;9.75
76101;PMS7003;64830;46.910;6.354;2022-12-07T01:53:29;16.00;14.50;10.25
76101;PMS7003;64830;46.910;6.354;2022-12-07T01:55:56;17.00;16.75;13.00
76101;PMS7003;64830;46.910;6.354;2022-12-07T01:58:24;22.00;16.00;10.50
76101;PMS7003;64830;46.910;6.354;2022-12-07T02:00:50;18.00;18.00;10.50
76101;PMS7003;64830;46.910;6.354;2022-12-07T02:03:19;13.50;11.00;10.00
76101;PMS7003;64830;46.910;6.354;2022-12-07T02:05:54;18.50;14.00;8.00
76101;PMS7003;64830;46.910;6.354;2022-12-07T02:08:20;13.00;12.75;10.50
76101;PMS7003;64830;46.910;6.354;2022-12-07T02:10:46;14.50;12.00;8.00
76101;PMS7003;64830;46.910;6.354;2022-12-07T02:21:14;14.00;13.00;10.75
76101;PMS7003;64830;46.910;6.354;2022-12-07T02:31:29;14.50;11.00;8.25
76101;PMS7003;64830;46.910;6.354;2022-12-07T02:33:58;17.50;14.00;11.00
76101;PMS7003;64830;46.910;6.354;2022-12-07T02:36:34;19.25;16.00;10.25
76101;PMS7003;64830;46.910;6.354;2022-12-07T02:41:33;19.25;14.50;11.25
76101;PMS7003;64830;46.910;6.354;2022-12-07T02:44:10;15.00;10.00;8.00
76101;PMS7003;64830;46.910;6.354;2022-12-07T02:46:40;18.50;16.25;10.75
76101;PMS7003;64830;46.910;6.354;2022-12-07T02:49:09;18.50;15.50;11.00
76101;PMS7003;64830;46.910;6.354;2022-12-07T02:51:39;14.50;11.50;8.50
76101;PMS7003;64830;46.910;6.354;2022-12-07T02:54:24;20.25;19.25;13.00
76101;PMS7003;64830;46.910;6.354;2022-12-07T03:10:58;13.75;13.25;9.00
76101;PMS7003;64830;46.910;6.354;2022-12-07T03:13:29;16.50;14.25;8.00
76101;PMS7003;64830;46.910;6.354;2022-12-07T03:18:41;15.25;12.75;8.75
76101;PMS7003;64830;46.910;6.354;2022-12-07T03:21:16;13.75;13.50;8.00
76101;PMS7003;64830;46.910;6.354;2022-12-07T03:23:45;16.25;13.75;8.25
76101;PMS7003;64830;46.910;6.354;2022-12-07T03:26:19;16.25;16.25;10.00
76101;PMS7003;64830;46.910;6.354;2022-12-07T03:28:50;14.75;14.50;11.25
76101;PMS7003;64830;46.910;6.354;2022-12-07T03:31:21;17.25;15.25;8.50
76101;PMS7003;64830;46.910;6.354;2022-12-07T03:36:26;15.25;13.00;9.50
76101;PMS7003;64830;46.910;6.354;2022-12-07T03:41:59;13.75;13.75;10.00
76101;PMS7003;64830;46.910;6.354;2022-12-07T03:44:29;17.25;15.25;10.00
76101;PMS7003;64830;46.910;6.354;2022-12-07T03:52:25;21.25;20.00;12.50
76101;PMS7003;64830;46.910;6.354;2022-12-07T03:57:36;18.50;13.00;7.25
76101;PMS7003;64830;46.910;6.354;2022-12-07T04:00:04;14.25;13.00;8.00
76101;PMS7003;64830;46.910;6.354;2022-12-07T04:02:31;20.25;13.50;10.00
76101;PMS7003;64830;46.910;6.354;2022-12-07T04:04:57;12.50;11.75;9.50
76101;PMS7003;64830;46.910;6.354;2022-12-07T04:07:23;17.50;12.50;8.75
76101;PMS7003;64830;46.910;6.354;2022-12-07T04:09:49;10.75;10.00;6.50
76101;PMS7003;64830;46.910;6.354;2022-12-07T04:12:15;13.50;12.75;9.00
76101;PMS7003;64830;46.910;6.354;2022-12-07T04:14:40;16.25;14.75;9.50
76101;PMS7003;64830;46.910;6.354;2022-12-07T04:17:06;21.25;16.25;9.00
76101;PMS7003;64830;46.910;6.354;2022-12-07T04:19:32;13.50;13.25;9.50
76101;PMS7003;64830;46.910;6.354;2022-12-07T04:21:59;13.50;11.75;9.50
76101;PMS7003;64830;46.910;6.354;2022-12-07T04:24:26;13.00;12.00;9.75
76101;PMS7003;64830;46.910;6.354;2022-12-07T04:26:53;14.75;12.00;8.50
76101;PMS7003;64830;46.910;6.354;2022-12-07T04:29:18;19.25;16.50;11.25
76101;PMS7003;64830;46.910;6.354;2022-12-07T04:31:44;15.75;13.00;9.50
76101;PMS7003;64830;46.910;6.354;2022-12-07T04:34:10;13.75;12.50;9.00
76101;PMS7003;64830;46.910;6.354;2022-12-07T04:36:36;16.50;13.50;10.75
76101;PMS7003;64830;46.910;6.354;2022-12-07T04:39:03;10.75;10.75;9.00
76101;PMS7003;64830;46.910;6.354;2022-12-07T04:41:30;16.00;13.00;10.50
76101;PMS7003;64830;46.910;6.354;2022-12-07T04:43:55;17.00;12.00;7.25
76101;PMS7003;64830;46.910;6.354;2022-12-07T04:46:28;12.25;10.00;5.00
76101;PMS7003;64830;46.910;6.354;2022-12-07T04:48:56;14.50;12.00;8.25
76101;PMS7003;64830;46.910;6.354;2022-12-07T04:51:23;12.75;12.25;7.00
76101;PMS7003;64830;46.910;6.354;2022-12-07T04:53:51;12.75;10.25;6.75
76101;PMS7003;64830;46.910;6.354;2022-12-07T04:56:17;10.75;10.75;7.00
76101;PMS7003;64830;46.910;6.354;2022-12-07T04:58:43;17.50;14.25;8.50
76101;PMS7003;64830;46.910;6.354;2022-12-07T05:01:10;13.75;11.75;9.25
76101;PMS7003;64830;46.910;6.354;2022-12-07T05:03:36;16.50;14.25;9.00
76101;PMS7003;64830;46.910;6.354;2022-12-07T05:06:02;12.25;11.25;8.25
76101;PMS7003;64830;46.910;6.354;2022-12-07T05:08:28;13.50;12.50;8.00
76101;PMS7003;64830;46.910;6.354;2022-12-07T05:10:53;15.25;11.50;9.00
76101;PMS7003;64830;46.910;6.354;2022-12-07T05:13:19;13.00;10.75;7.00
76101;PMS7003;64830;46.910;6.354;2022-12-07T05:15:44;15.00;9.50;8.00
76101;PMS7003;64830;46.910;6.354;2022-12-07T05:18:11;13.75;10.75;6.50
76101;PMS7003;64830;46.910;6.354;2022-12-07T05:20:40;18.50;14.50;10.00
76101;PMS7003;64830;46.910;6.354;2022-12-07T05:23:05;19.50;13.75;7.75
76101;PMS7003;64830;46.910;6.354;2022-12-07T05:25:31;16.50;14.25;11.50
76101;PMS7003;64830;46.910;6.354;2022-12-07T05:27:56;14.00;12.00;9.00
76101;PMS7003;64830;46.910;6.354;2022-12-07T05:30:22;16.25;13.25;9.75
76101;PMS7003;64830;46.910;6.354;2022-12-07T05:32:49;17.00;16.00;10.75
76101;PMS7003;64830;46.910;6.354;2022-12-07T05:35:15;17.75;15.25;10.00
76101;PMS7003;64830;46.910;6.354;2022-12-07T05:37:40;16.75;13.00;10.00
76101;PMS7003;64830;46.910;6.354;2022-12-07T05:40:06;17.25;14.00;10.00
76101;PMS7003;64830;46.910;6.354;2022-12-07T05:42:32;1.00;1.00;1.00
76101;PMS7003;64830;46.910;6.354;2022-12-07T05:44:57;15.50;14.25;9.25
76101;PMS7003;64830;46.910;6.354;2022-12-07T05:47:23;13.25;9.50;8.50
76101;PMS7003;64830;46.910;6.354;2022-12-07T05:49:48;13.75;10.25;8.75
76101;PMS7003;64830;46.910;6.354;2022-12-07T05:52:13;22.50;18.75;12.75
76101;PMS7003;64830;46.910;6.354;2022-12-07T05:54:39;15.50;13.00;10.50
76101;PMS7003;64830;46.910;6.354;2022-12-07T05:57:04;9.50;8.00;4.50
76101;PMS7003;64830;46.910;6.354;2022-12-07T05:59:30;16.00;16.00;12.25
76101;PMS7003;64830;46.910;6.354;2022-12-07T06:02:03;13.50;9.25;7.00
76101;PMS7003;64830;46.910;6.354;2022-12-07T06:04:31;24.50;16.75;10.00
76101;PMS7003;64830;46.910;6.354;2022-12-07T06:06:59;17.50;14.25;11.25
76101;PMS7003;64830;46.910;6.354;2022-12-07T06:09:25;16.50;16.00;11.00
76101;PMS7003;64830;46.910;6.354;2022-12-07T06:11:52;20.75;16.75;11.25
76101;PMS7003;64830;46.910;6.354;2022-12-07T06:14:36;23.00;16.00;10.00
76101;PMS7003;64830;46.910;6.354;2022-12-07T06:17:02;16.50;16.50;12.00
76101;PMS7003;64830;46.910;6.354;2022-12-07T06:19:27;18.25;16.25;11.25
76101;PMS7003;64830;46.910;6.354;2022-12-07T06:21:54;17.75;15.00;10.00
76101;PMS7003;64830;46.910;6.354;2022-12-07T06:24:20;13.00;11.75;9.00
76101;PMS7003;64830;46.910;6.354;2022-12-07T06:26:46;15.75;13.50;9.50
76101;PMS7003;64830;46.910;6.354;2022-12-07T06:29:11;19.50;13.00;9.50
76101;PMS7003;64830;46.910;6.354;2022-12-07T06:31:37;17.25;10.50;6.75
76101;PMS7003;64830;46.910;6.354;2022-12-07T06:34:04;19.00;17.50;10.50
76101;PMS7003;64830;46.910;6.354;2022-12-07T06:36:31;13.00;13.00;10.25
76101;PMS7003;64830;46.910;6.354;2022-12-07T06:38:57;12.50;10.00;7.00
76101;PMS7003;64830;46.910;6.354;2022-12-07T06:41:23;20.25;13.00;9.25
76101;PMS7003;64830;46.910;6.354;2022-12-07T06:43:48;18.00;18.00;12.25
76101;PMS7003;64830;46.910;6.354;2022-12-07T06:46:14;20.50;19.50;12.75
76101;PMS7003;64830;46.910;6.354;2022-12-07T06:48:40;19.00;18.00;13.00
76101;PMS7003;64830;46.910;6.354;2022-12-07T06:51:06;16.25;15.75;12.75
76101;PMS7003;64830;46.910;6.354;2022-12-07T06:53:32;20.00;17.75;12.25
76101;PMS7003;64830;46.910;6.354;2022-12-07T06:55:57;15.75;13.75;11.75
76101;PMS7003;64830;46.910;6.354;2022-12-07T06:58:23;19.50;18.50;12.50
76101;PMS7003;64830;46.910;6.354;2022-12-07T07:00:48;23.00;19.00;12.50
76101;PMS7003;64830;46.910;6.354;2022-12-07T07:03:15;20.50;19.00;14.25
76101;PMS7003;64830;46.910;6.354;2022-12-07T07:05:41;20.25;19.25;10.50
76101;PMS7003;64830;46.910;6.354;2022-12-07T07:08:07;24.25;20.75;15.00
76101;PMS7003;64830;46.910;6.354;2022-12-07T07:10:32;23.00;18.25;13.00
76101;PMS7003;64830;46.910;6.354;2022-12-07T07:12:58;18.75;15.00;10.25
76101;PMS7003;64830;46.910;6.354;2022-12-07T07:15:23;20.25;17.00;11.50
76101;PMS7003;64830;46.910;6.354;2022-12-07T07:17:49;22.00;17.25;10.75
76101;PMS7003;64830;46.910;6.354;2022-12-07T07:20:15;20.25;15.75;10.50
76101;PMS7003;64830;46.910;6.354;2022-12-07T07:22:40;20.75;16.50;13.00
76101;PMS7003;64830;46.910;6.354;2022-12-07T07:25:06;16.75;12.75;7.25
76101;PMS7003;64830;46.910;6.354;2022-12-07T07:27:31;25.50;21.00;15.75
76101;PMS7003;64830;46.910;6.354;2022-12-07T07:29:57;20.75;14.75;10.50
76101;PMS7003;64830;46.910;6.354;2022-12-07T07:32:22;19.50;16.25;12.50
76101;PMS7003;64830;46.910;6.354;2022-12-07T07:34:48;32.25;23.75;13.75
76101;PMS7003;64830;46.910;6.354;2022-12-07T07:37:13;13.00;12.50;8.25
76101;PMS7003;64830;46.910;6.354;2022-12-07T07:39:39;19.25;15.00;11.75
76101;PMS7003;64830;46.910;6.354;2022-12-07T07:42:05;18.75;17.25;11.25
76101;PMS7003;64830;46.910;6.354;2022-12-07T07:44:32;17.50;15.50;10.25
76101;PMS7003;64830;46.910;6.354;2022-12-07T07:46:58;16.75;16.25;11.75
76101;PMS7003;64830;46.910;6.354;2022-12-07T07:49:23;26.25;18.25;13.75
76101;PMS7003;64830;46.910;6.354;2022-12-07T07:51:49;21.50;15.75;12.50
76101;PMS7003;64830;46.910;6.354;2022-12-07T07:54:14;17.25;16.00;10.00
76101;PMS7003;64830;46.910;6.354;2022-12-07T07:56:40;21.00;18.75;10.25
76101;PMS7003;64830;46.910;6.354;2022-12-07T07:59:05;18.25;15.00;10.50
76101;PMS7003;64830;46.910;6.354;2022-12-07T08:01:30;22.75;16.75;13.50
76101;PMS7003;64830;46.910;6.354;2022-12-07T08:03:56;20.25;17.00;11.50
76101;PMS7003;64830;46.910;6.354;2022-12-07T08:06:21;22.00;16.75;13.25
76101;PMS7003;64830;46.910;6.354;2022-12-07T08:08:47;20.25;20.25;14.25
76101;PMS7003;64830;46.910;6.354;2022-12-07T08:11:12;22.00;21.00;15.50
76101;PMS7003;64830;46.910;6.354;2022-12-07T08:13:37;14.25;13.75;9.50
76101;PMS7003;64830;46.910;6.354;2022-12-07T08:16:03;25.00;17.00;12.00
76101;PMS7003;64830;46.910;6.354;2022-12-07T08:18:30;16.75;16.00;11.00
76101;PMS7003;64830;46.910;6.354;2022-12-07T08:21:00;23.25;15.00;11.00
76101;PMS7003;64830;46.910;6.354;2022-12-07T08:23:28;17.00;16.25;11.75
76101;PMS7003;64830;46.910;6.354;2022-12-07T08:25:54;20.50;18.50;10.50
76101;PMS7003;64830;46.910;6.354;2022-12-07T08:28:19;26.00;19.50;12.75
76101;PMS7003;64830;46.910;6.354;2022-12-07T08:30:45;17.00;16.00;11.00
76101;PMS7003;64830;46.910;6.354;2022-12-07T08:33:10;16.25;13.75;5.00
76101;PMS7003;64830;46.910;6.354;2022-12-07T08:35:36;20.25;18.00;13.00
76101;PMS7003;64830;46.910;6.354;2022-12-07T08:38:02;22.25;15.00;8.00
76101;PMS7003;64830;46.910;6.354;2022-12-07T08:40:28;16.50;16.50;13.00
76101;PMS7003;64830;46.910;6.354;2022-12-07T08:42:54;21.50;18.50;13.25
76101;PMS7003;64830;46.910;6.354;2022-12-07T08:45:20;18.25;17.25;13.00
76101;PMS7003;64830;46.910;6.354;2022-12-07T08:50:25;26.25;23.50;13.75
76101;PMS7003;64830;46.910;6.354;2022-12-07T08:52:52;20.50;18.00;11.25
76101;PMS7003;64830;46.910;6.354;2022-12-07T08:55:19;22.25;19.50;13.75
76101;PMS7003;64830;46.910;6.354;2022-12-07T08:57:46;18.00;17.75;12.25
76101;PMS7003;64830;46.910;6.354;2022-12-07T09:00:12;13.00;13.00;8.00
76101;PMS7003;64830;46.910;6.354;2022-12-07T09:02:38;14.50;11.75;9.75
76101;PMS7003;64830;46.910;6.354;2022-12-07T09:05:04;12.00;12.00;8.00
76101;PMS7003;64830;46.910;6.354;2022-12-07T09:07:30;7.50;7.00;4.25
76101;PMS7003;64830;46.910;6.354;2022-12-07T09:09:58;13.50;12.00;7.75
76101;PMS7003;64830;46.910;6.354;2022-12-07T09:12:24;16.25;11.00;6.50
76101;PMS7003;64830;46.910;6.354;2022-12-07T09:14:49;15.50;11.75;7.75
76101;PMS7003;64830;46.910;6.354;2022-12-07T09:17:15;14.00;9.50;6.00
76101;PMS7003;64830;46.910;6.354;2022-12-07T09:19:40;7.75;5.00;3.00
76101;PMS7003;64830;46.910;6.354;2022-12-07T09:22:07;7.25;7.00;4.25
76101;PMS7003;64830;46.910;6.354;2022-12-07T09:24:33;8.50;5.00;2.50
76101;PMS7003;64830;46.910;6.354;2022-12-07T09:26:58;4.00;2.00;2.00
76101;PMS7003;64830;46.910;6.354;2022-12-07T09:29:24;8.00;5.00;4.00
76101;PMS7003;64830;46.910;6.354;2022-12-07T09:31:50;6.25;1.75;1.00
76101;PMS7003;64830;46.910;6.354;2022-12-07T09:34:16;7.75;6.50;3.00
76101;PMS7003;64830;46.910;6.354;2022-12-07T09:36:42;7.00;5.00;2.00
76101;PMS7003;64830;46.910;6.354;2022-12-07T09:39:08;4.00;4.00;2.00
76101;PMS7003;64830;46.910;6.354;2022-12-07T09:41:34;3.50;3.50;1.25
76101;PMS7003;64830;46.910;6.354;2022-12-07T09:44:23;5.25;5.00;4.00
76101;PMS7003;64830;46.910;6.354;2022-12-07T09:46:50;4.50;4.00;1.50
76101;PMS7003;64830;46.910;6.354;2022-12-07T09:49:18;6.25;6.25;4.00
76101;PMS7003;64830;46.910;6.354;2022-12-07T09:51:47;9.00;4.75;4.00
76101;PMS7003;64830;46.910;6.354;2022-12-07T09:54:24;5.00;5.00;3.50
76101;PMS7003;64830;46.910;6.354;2022-12-07T09:56:49;6.50;3.50;1.00
76101;PMS7003;64830;46.910;6.354;2022-12-07T09:59:17;3.50;3.50;1.50
76101;PMS7003;64830;46.910;6.354;2022-12-07T10:01:44;9.00;7.50;4.00
76101;PMS7003;64830;46.910;6.354;2022-12-07T10:04:15;7.25;5.75;4.75
76101;PMS7003;64830;46.910;6.354;2022-12-07T10:06:43;8.75;5.75;4.00
76101;PMS7003;64830;46.910;6.354;2022-12-07T10:09:14;5.75;5.75;4.00
76101;PMS7003;64830;46.910;6.354;2022-12-07T10:14:39;6.50;6.50;3.50
76101;PMS7003;64830;46.910;6.354;2022-12-07T10:17:39;9.25;7.75;4.00
76101;PMS7003;64830;46.910;6.354;2022-12-07T10:22:37;10.25;8.00;5.00
76101;PMS7003;64830;46.910;6.354;2022-12-07T10:25:15;8.75;8.25;4.75
76101;PMS7003;64830;46.910;6.354;2022-12-07T10:27:44;5.25;5.00;4.00
76101;PMS7003;64830;46.910;6.354;2022-12-07T10:30:22;9.00;8.00;5.00
76101;PMS7003;64830;46.910;6.354;2022-12-07T10:32:47;10.25;7.75;4.75
76101;PMS7003;64830;46.910;6.354;2022-12-07T10:37:53;11.00;7.50;4.75
76101;PMS7003;64830;46.910;6.354;2022-12-07T10:40:33;6.00;5.75;4.00
76101;PMS7003;64830;46.910;6.354;2022-12-07T10:43:04;8.00;8.00;5.00
76101;PMS7003;64830;46.910;6.354;2022-12-07T10:51:06;10.00;6.00;2.00
76101;PMS7003;64830;46.910;6.354;2022-12-07T10:53:47;6.25;6.25;4.00
76101;PMS7003;64830;46.910;6.354;2022-12-07T10:57:01;6.25;5.50;2.00
76101;PMS7003;64830;46.910;6.354;2022-12-07T11:05:01;7.00;7.00;5.00
76101;PMS7003;64830;46.910;6.354;2022-12-07T11:18:13;4.00;4.00;3.00
76101;PMS7003;64830;46.910;6.354;2022-12-07T11:24:29;2.00;2.00;1.00
76101;PMS7003;64830;46.910;6.354;2022-12-07T11:27:26;1.25;1.25;1.00
76101;PMS7003;64830;46.910;6.354;2022-12-07T11:32:57;2.00;2.00;1.00
76101;PMS7003;64830;46.910;6.354;2022-12-07T11:38:08;4.75;2.00;2.00
76101;PMS7003;64830;46.910;6.354;2022-12-07T11:40:39;5.50;2.00;1.50
76101;PMS7003;64830;46.910;6.354;2022-12-07T11:45:44;3.00;1.75;0.75
76101;PMS7003;64830;46.910;6.354;2022-12-07T11:50:56;4.25;2.00;1.25
76101;PMS7003;64830;46.910;6.354;2022-12-07T11:56:21;4.00;4.00;2.00
76101;PMS7003;64830;46.910;6.354;2022-12-07T11:59:50;4.00;4.00;2.00
76101;PMS7003;64830;46.910;6.354;2022-12-07T12:02:03;2.00;2.00;2.00
76101;PMS7003;64830;46.910;6.354;2022-12-07T12:04:58;2.00;2.00;1.50
76101;PMS7003;64830;46.910;6.354;2022-12-07T12:07:31;5.00;5.00;2.00
76101;PMS7003;64830;46.910;6.354;2022-12-07T12:10:40;3.00;3.00;1.75
76101;PMS7003;64830;46.910;6.354;2022-12-07T12:21:08;2.00;2.00;1.00
76101;PMS7003;64830;46.910;6.354;2022-12-07T12:23:44;4.25;1.25;1.00
76101;PMS7003;64830;46.910;6.354;2022-12-07T12:26:17;7.25;6.25;4.00
76101;PMS7003;64830;46.910;6.354;2022-12-07T12:31:15;4.75;4.75;2.00
76101;PMS7003;64830;46.910;6.354;2022-12-07T12:33:46;4.00;1.50;1.25
76101;PMS7003;64830;46.910;6.354;2022-12-07T12:36:18;2.00;1.00;1.00
76101;PMS7003;64830;46.910;6.354;2022-12-07T12:51:54;3.50;2.00;1.25
76101;PMS7003;64830;46.910;6.354;2022-12-07T12:59:41;4.00;4.00;2.00
76101;PMS7003;64830;46.910;6.354;2022-12-07T13:02:27;6.00;4.00;3.50
76101;PMS7003;64830;46.910;6.354;2022-12-07T13:18:35;5.25;4.00;2.00
76101;PMS7003;64830;46.910;6.354;2022-12-07T13:23:36;4.25;4.25;2.50
76101;PMS7003;64830;46.910;6.354;2022-12-07T13:26:35;4.75;4.00;3.50
76101;PMS7003;64830;46.910;6.354;2022-12-07T13:29:20;6.50;4.75;4.00
76101;PMS7003;64830;46.910;6.354;2022-12-07T13:31:52;3.00;3.00;2.00
76101;PMS7003;64830;46.910;6.354;2022-12-07T13:37:43;3.00;3.00;1.50
76101;PMS7003;64830;46.910;6.354;2022-12-07T13:40:18;3.75;2.00;1.00
76101;PMS7003;64830;46.910;6.354;2022-12-07T13:42:47;4.25;4.25;3.50
76101;PMS7003;64830;46.910;6.354;2022-12-07T13:45:28;4.75;2.00;2.00
76101;PMS7003;64830;46.910;6.354;2022-12-07T13:48:15;4.00;4.00;2.00
76101;PMS7003;64830;46.910;6.354;2022-12-07T13:50:52;5.00;5.00;3.50
76101;PMS7003;64830;46.910;6.354;2022-12-07T13:53:22;4.75;4.75;2.00
76101;PMS7003;64830;46.910;6.354;2022-12-07T13:55:48;4.00;4.00;2.00
76101;PMS7003;64830;46.910;6.354;2022-12-07T13:58:14;4.25;4.25;2.50
76101;PMS7003;64830;46.910;6.354;2022-12-07T14:00:40;5.25;5.00;4.00
76101;PMS7003;64830;46.910;6.354;2022-12-07T14:05:38;5.75;4.00;4.00
76101;PMS7003;64830;46.910;6.354;2022-12-07T14:08:20;9.25;6.00;5.00
76101;PMS7003;64830;46.910;6.354;2022-12-07T14:16:00;6.00;5.00;3.00
76101;PMS7003;64830;46.910;6.354;2022-12-07T14:18:27;7.00;5.00;3.50
76101;PMS7003;64830;46.910;6.354;2022-12-07T14:23:35;15.00;11.75;7.00
76101;PMS7003;64830;46.910;6.354;2022-12-07T14:26:15;5.00;5.00;1.00
76101;PMS7003;64830;46.910;6.354;2022-12-07T14:28:44;12.25;11.25;9.00
76101;PMS7003;64830;46.910;6.354;2022-12-07T14:31:14;11.25;11.25;7.50
76101;PMS7003;64830;46.910;6.354;2022-12-07T14:33:41;5.00;5.00;3.00
76101;PMS7003;64830;46.910;6.354;2022-12-07T14:36:10;8.75;6.00;4.25
76101;PMS7003;64830;46.910;6.354;2022-12-07T14:38:37;4.50;4.25;2.00
76101;PMS7003;64830;46.910;6.354;2022-12-07T14:41:03;6.25;6.25;4.00
76101;PMS7003;64830;46.910;6.354;2022-12-07T14:43:49;6.25;6.25;4.75
76101;PMS7003;64830;46.910;6.354;2022-12-07T14:46:15;4.25;4.25;4.00
76101;PMS7003;64830;46.910;6.354;2022-12-07T14:48:41;10.00;7.00;5.00
76101;PMS7003;64830;46.910;6.354;2022-12-07T14:51:07;4.00;4.00;3.00
76101;PMS7003;64830;46.910;6.354;2022-12-07T14:53:39;5.75;5.75;4.00
76101;PMS7003;64830;46.910;6.354;2022-12-07T14:56:11;5.25;4.50;2.00
76101;PMS7003;64830;46.910;6.354;2022-12-07T14:58:36;6.75;6.50;4.50
76101;PMS7003;64830;46.910;6.354;2022-12-07T15:01:02;4.50;2.00;1.00
76101;PMS7003;64830;46.910;6.354;2022-12-07T15:03:28;6.00;4.75;2.00
76101;PMS7003;64830;46.910;6.354;2022-12-07T15:05:54;10.50;8.50;5.75
76101;PMS7003;64830;46.910;6.354;2022-12-07T15:08:20;3.00;3.00;1.50
76101;PMS7003;64830;46.910;6.354;2022-12-07T15:10:45;8.75;6.00;4.25
76101;PMS7003;64830;46.910;6.354;2022-12-07T15:13:10;6.75;5.25;4.00
76101;PMS7003;64830;46.910;6.354;2022-12-07T15:15:54;6.00;4.50;3.00
76101;PMS7003;64830;46.910;6.354;2022-12-07T15:18:20;8.50;5.75;4.50
76101;PMS7003;64830;46.910;6.354;2022-12-07T15:20:48;5.00;5.00;4.00
76101;PMS7003;64830;46.910;6.354;2022-12-07T15:23:13;8.75;8.00;4.00
76101;PMS7003;64830;46.910;6.354;2022-12-07T15:25:40;6.50;6.25;4.00
76101;PMS7003;64830;46.910;6.354;2022-12-07T15:28:10;7.50;7.50;5.25
76101;PMS7003;64830;46.910;6.354;2022-12-07T15:30:39;6.50;6.50;5.00
76101;PMS7003;64830;46.910;6.354;2022-12-07T15:33:09;5.25;5.25;4.00
76101;PMS7003;64830;46.910;6.354;2022-12-07T15:35:40;11.00;6.25;4.00
76101;PMS7003;64830;46.910;6.354;2022-12-07T15:38:07;8.25;8.00;5.25
76101;PMS7003;64830;46.910;6.354;2022-12-07T15:40:33;8.00;5.75;4.50
76101;PMS7003;64830;46.910;6.354;2022-12-07T15:42:59;7.50;6.00;4.00
76101;PMS7003;64830;46.910;6.354;2022-12-07T15:45:25;11.75;10.75;6.25
76101;PMS7003;64830;46.910;6.354;2022-12-07T15:47:50;14.25;11.50;7.50
76101;PMS7003;64830;46.910;6.354;2022-12-07T15:50:16;12.75;9.00;8.00
76101;PMS7003;64830;46.910;6.354;2022-12-07T15:52:42;13.00;10.00;6.25
76101;PMS7003;64830;46.910;6.354;2022-12-07T15:55:08;12.75;11.75;6.00
76101;PMS7003;64830;46.910;6.354;2022-12-07T15:57:35;10.75;9.00;6.25
76101;PMS7003;64830;46.910;6.354;2022-12-07T16:00:02;9.00;8.00;6.25
76101;PMS7003;64830;46.910;6.354;2022-12-07T16:02:33;7.00;7.00;5.50
76101;PMS7003;64830;46.910;6.354;2022-12-07T16:05:00;8.75;8.75;5.00
76101;PMS7003;64830;46.910;6.354;2022-12-07T16:07:25;7.00;6.25;3.50
76101;PMS7003;64830;46.910;6.354;2022-12-07T16:09:50;8.75;8.25;5.00
76101;PMS7003;64830;46.910;6.354;2022-12-07T16:12:16;9.00;8.00;5.75
76101;PMS7003;64830;46.910;6.354;2022-12-07T16:14:42;4.25;4.00;4.00
76101;PMS7003;64830;46.910;6.354;2022-12-07T16:17:08;5.75;5.75;3.00
76101;PMS7003;64830;46.910;6.354;2022-12-07T16:19:35;9.00;8.50;6.25
76101;PMS7003;64830;46.910;6.354;2022-12-07T16:22:01;10.50;7.75;5.00
76101;PMS7003;64830;46.910;6.354;2022-12-07T16:24:26;8.75;8.75;6.50
76101;PMS7003;64830;46.910;6.354;2022-12-07T16:26:52;15.00;11.00;5.00
76101;PMS7003;64830;46.910;6.354;2022-12-07T16:29:19;12.75;9.00;7.75
76101;PMS7003;64830;46.910;6.354;2022-12-07T16:31:45;9.00;9.00;6.25
76101;PMS7003;64830;46.910;6.354;2022-12-07T16:34:11;21.25;13.00;8.25
76101;PMS7003;64830;46.910;6.354;2022-12-07T16:36:36;10.75;10.75;7.75
76101;PMS7003;64830;46.910;6.354;2022-12-07T16:39:02;9.50;9.50;7.00
76101;PMS7003;64830;46.910;6.354;2022-12-07T16:41:28;6.75;5.00;4.00
76101;PMS7003;64830;46.910;6.354;2022-12-07T16:43:53;5.00;4.25;2.00
76101;PMS7003;64830;46.910;6.354;2022-12-07T16:46:19;4.50;4.50;4.00
76101;PMS7003;64830;46.910;6.354;2022-12-07T16:48:44;8.50;8.00;7.00